createdAt,value
2022-10-10T00:02:01.665Z,97249.19
2022-10-10T00:04:29.769Z,97247.69
2022-10-10T00:06:57.918Z,97244.56
2022-10-10T00:09:26.059Z,97246.53
2022-10-10T00:11:54.139Z,97244.09
2022-10-10T00:14:24.109Z,97244.75
2022-10-10T00:16:52.392Z,97245.59
2022-10-10T00:19:20.889Z,97225.63
2022-10-10T00:21:49.066Z,97239.31
2022-10-10T00:24:17.140Z,97242.13
2022-10-10T00:26:45.238Z,97239.47
2022-10-10T00:29:13.368Z,97243.63
2022-10-10T00:31:42.902Z,97243.25
2022-10-10T00:34:11.022Z,97240.97
2022-10-10T00:36:39.072Z,97235.03
2022-10-10T00:39:07.248Z,97225.13
2022-10-10T00:41:35.650Z,97230.09
2022-10-10T00:44:09.279Z,97239.97
2022-10-10T00:46:37.491Z,97236.16
2022-10-10T00:49:11.101Z,97230.34
2022-10-10T00:51:39.497Z,97239.25
2022-10-10T00:54:10.578Z,97232.81
2022-10-10T00:56:42.933Z,97234.63
2022-10-10T00:59:12.717Z,97232.97
2022-10-10T01:01:41.682Z,97232.91
2022-10-10T01:04:33.329Z,97239.50
2022-10-10T01:07:02.089Z,97231.59
2022-10-10T01:09:30.495Z,97238.03
2022-10-10T01:12:03.069Z,97226.81
2022-10-10T01:14:40.271Z,97227.63
2022-10-10T01:17:15.850Z,97228.16
2022-10-10T01:20:16.097Z,97226.00
2022-10-10T01:22:53.045Z,97222.09
2022-10-10T01:25:28.950Z,97222.91
2022-10-10T01:28:02.501Z,97224.72
2022-10-10T01:30:32.387Z,97222.56
2022-10-10T01:33:05.355Z,97222.44
2022-10-10T01:35:40.609Z,97217.81
2022-10-10T01:38:18.809Z,97217.63
2022-10-10T01:40:51.176Z,97219.28
2022-10-10T01:43:19.789Z,97215.19
2022-10-10T01:45:50.999Z,97211.22
2022-10-10T01:48:21.190Z,97212.88
2022-10-10T01:51:02.540Z,97215.19
2022-10-10T01:53:40.428Z,97211.22
2022-10-10T01:56:11.801Z,97202.34
2022-10-10T01:58:55.081Z,97204.31
2022-10-10T02:01:27.841Z,97203.97
2022-10-10T02:04:02.633Z,97195.75
2022-10-10T02:06:34.560Z,97203.66
2022-10-10T02:09:06.461Z,97195.06
2022-10-10T02:11:37.679Z,97197.88
2022-10-10T02:14:12.012Z,97197.03
2022-10-10T02:16:44.599Z,97185.22
2022-10-10T02:19:15.760Z,97188.78
2022-10-10T02:21:44.520Z,97195.06
2022-10-10T02:24:14.518Z,97193.72
2022-10-10T02:26:45.910Z,97195.56
2022-10-10T02:29:17.510Z,97188.63
2022-10-10T02:31:49.868Z,97197.19
2022-10-10T02:34:19.248Z,97190.44
2022-10-10T02:36:50.988Z,97191.41
2022-10-10T02:39:20.712Z,97186.31
2022-10-10T02:41:49.749Z,97189.94
2022-10-10T02:44:18.119Z,97183.69
2022-10-10T02:46:47.879Z,97185.81
2022-10-10T02:49:16.036Z,97186.78
2022-10-10T02:51:44.728Z,97177.06
2022-10-10T02:54:12.855Z,97176.25
2022-10-10T02:56:41.376Z,97180.31
2022-10-10T02:59:09.488Z,97181.31
2022-10-10T03:01:37.762Z,97176.69
2022-10-10T03:04:07.279Z,97175.19
2022-10-10T03:06:36.291Z,97176.53
2022-10-10T03:09:05.398Z,97173.25
2022-10-10T03:11:34.106Z,97169.75
2022-10-10T03:14:02.191Z,97169.09
2022-10-10T03:16:30.348Z,97181.44
2022-10-10T03:18:58.518Z,97189.66
2022-10-10T03:21:28.458Z,97189.28
2022-10-10T03:23:56.567Z,97190.06
2022-10-10T03:26:25.297Z,97197.78
2022-10-10T03:28:53.440Z,97186.91
2022-10-10T03:31:21.618Z,97197.22
2022-10-10T03:33:49.750Z,97196.50
2022-10-10T03:36:17.971Z,97190.03
2022-10-10T03:38:47.492Z,97198.66
2022-10-10T03:41:15.757Z,97191.13
2022-10-10T03:43:43.938Z,97197.94
2022-10-10T03:46:15.998Z,97192.22
2022-10-10T03:48:44.618Z,97182.84
2022-10-10T03:51:13.271Z,97192.31
2022-10-10T03:53:41.448Z,97189.78
2022-10-10T03:56:11.328Z,97192.53
2022-10-10T03:58:39.448Z,97193.69
2022-10-10T04:01:07.741Z,97181.16
2022-10-10T04:03:35.932Z,97188.75
2022-10-10T04:06:04.048Z,97193.03
2022-10-10T04:08:32.168Z,97182.75
2022-10-10T04:11:00.404Z,97192.28
2022-10-10T04:13:30.028Z,97175.75
2022-10-10T04:15:58.309Z,97186.94
2022-10-10T04:18:26.778Z,97182.66
2022-10-10T04:20:54.909Z,97191.16
2022-10-10T04:23:23.123Z,97187.19
2022-10-10T04:25:52.948Z,97189.13
2022-10-10T04:28:21.168Z,97194.53
2022-10-10T04:30:51.004Z,97175.63
2022-10-10T04:33:19.148Z,97192.75
2022-10-10T04:35:50.282Z,97185.16
2022-10-10T04:38:19.928Z,97189.75
2022-10-10T04:40:50.090Z,97176.31
2022-10-10T04:43:18.576Z,97175.94
2022-10-10T04:45:46.845Z,97188.88
2022-10-10T04:48:16.440Z,97191.22
2022-10-10T04:50:44.802Z,97190.63
2022-10-10T04:53:12.982Z,97190.75
2022-10-10T04:55:41.233Z,97190.75
2022-10-10T04:58:09.728Z,97188.81
2022-10-10T05:00:38.620Z,97183.81
2022-10-10T05:03:07.428Z,97192.28
2022-10-10T05:05:37.009Z,97199.69
2022-10-10T05:08:05.142Z,97198.34
2022-10-10T05:10:37.028Z,97205.84
2022-10-10T05:13:05.209Z,97209.31
2022-10-10T05:15:35.719Z,97206.44
2022-10-10T05:18:04.473Z,97202.16
2022-10-10T05:20:34.217Z,97209.88
